| time (UTC) | temp C | wind direction | speed KPH | gust KPH | rain 1hr cm | rain 24hr cm | rain mn cm | humidity % | barometer mb |
| 20260901092704 | 18 | 183 | 1.6 | 14.5 | 0.00 | 0.00 | 0.00 | 63 | 1018.6 |
| 20260901092205 | 18 | 272 | 4.8 | 14.5 | 0.00 | 0.00 | 0.00 | 62 | 1018.6 |
| 20260901091705 | 18 | 252 | 4.8 | 14.5 | 0.00 | 0.00 | 0.00 | 64 | 1018.7 |
| 20260901091204 | 18 | 254 | 4.8 | 8.0 | 0.00 | 0.00 | 0.00 | 64 | 1018.6 |
| 20260901090207 | 17 | 193 | 1.6 | 6.4 | 0.00 | 0.00 | 0.00 | 69 | 1018.6 |
| 20260901085705 | 17 | 197 | 3.2 | 6.4 | 0.00 | 0.00 | 0.00 | 70 | 1018.6 |
| 20260901085204 | 17 | 237 | 4.8 | 4.8 | 0.00 | 0.00 | 0.00 | 70 | 1018.6 |
| 20260901084204 | 16 | 235 | 1.6 | 4.8 | 0.00 | 0.00 | 0.00 | 74 | 1018.6 |
| 20260901083704 | 16 | 237 | 1.6 | 6.4 | 0.00 | 0.00 | 0.00 | 74 | 1018.5 |
| 20260901083203 | 16 | 237 | 3.2 | 6.4 | 0.00 | 0.00 | 0.00 | 74 | 1018.5 |
| 20260901082730 | 16 | 237 | 0.0 | 6.4 | 0.00 | 0.00 | 0.00 | 75 | 1018.5 |
| 20260901082209 | 16 | 237 | 0.0 | 4.8 | 0.00 | 0.00 | 0.00 | 77 | 1018.5 |
| 20260901081205 | 15 | 237 | 1.6 | 6.4 | 0.00 | 0.00 | 0.00 | 77 | 1018.6 |
| 20260901080710 | 15 | 237 | 1.6 | 6.4 | 0.00 | 0.00 | 0.00 | 77 | 1018.5 |
| 20260901080205 | 15 | 237 | 1.6 | 4.8 | 0.00 | 0.00 | 0.00 | 78 | 1018.4 |
| 20260901075704 | 15 | 237 | 1.6 | 6.4 | 0.00 | 0.00 | 0.00 | 78 | 1018.4 |
| 20260901075205 | 15 | 237 | 1.6 | 6.4 | 0.00 | 0.00 | 0.00 | 78 | 1018.4 |
| 20260901074707 | 15 | 237 | 1.6 | 6.4 | 0.00 | 0.00 | 0.00 | 78 | 1018.3 |
| 20260901073705 | 14 | 237 | 1.6 | 4.8 | 0.00 | 0.00 | 0.00 | 78 | 1018.2 |
| 20260901072705 | 14 | 237 | 1.6 | 6.4 | 0.00 | 0.00 | 0.00 | 79 | 1018.3 |
| 20260901072205 | 14 | 237 | 1.6 | 6.4 | 0.00 | 0.00 | 0.00 | 78 | 1018.2 |
| 20260901071705 | 14 | 237 | 1.6 | 3.2 | 0.00 | 0.00 | 0.00 | 78 | 1018.2 |
| 20260901070705 | 13 | 238 | 0.0 | 3.2 | 0.00 | 0.00 | 0.00 | 77 | 1018.2 |
| 20260901070205 | 13 | 238 | 0.0 | 3.2 | 0.00 | 0.00 | 0.00 | 77 | 1018.2 |
| 20260901064704 | 13 | 238 | 0.0 | 1.6 | 0.00 | 0.00 | 0.00 | 77 | 1018.0 |
| 20260901064203 | 13 | 238 | 0.0 | 3.2 | 0.00 | 0.00 | 0.00 | 77 | 1018.0 |
| 20260901063705 | 13 | 238 | 0.0 | 3.2 | 0.00 | 0.00 | 0.00 | 77 | 1018.0 |
| 20260901063205 | 13 | 238 | 0.0 | 3.2 | 0.00 | 0.00 | 0.00 | 77 | 1017.9 |
| 20260901062705 | 13 | 238 | 0.0 | 1.6 | 0.00 | 0.00 | 0.00 | 76 | 1017.9 |
| 20260901062204 | 13 | 238 | 0.0 | 1.6 | 0.00 | 0.00 | 0.00 | 76 | 1017.9 |
| 20260901061704 | 13 | 238 | 0.0 | 1.6 | 0.00 | 0.00 | 0.00 | 76 | 1017.9 |
| 20260901060706 | 12 | 238 | 0.0 | 1.6 | 0.00 | 0.00 | 0.00 | 76 | 1017.9 |
| 20260901060205 | 12 | 238 | 0.0 | 1.6 | 0.00 | 0.00 | 0.00 | 76 | 1017.8 |
| 20260901055705 | 12 | 238 | 0.0 | 1.6 | 0.00 | 0.00 | 0.00 | 76 | 1017.7 |
| 20260901055204 | 12 | 238 | 0.0 | 1.6 | 0.00 | 0.00 | 0.00 | 76 | 1017.7 |
| 20260901054705 | 12 | 238 | 0.0 | 1.6 | 0.00 | 0.00 | 0.00 | 76 | 1017.7 |
| 20260901054204 | 12 | 238 | 0.0 | 1.6 | 0.00 | 0.00 | 0.00 | 76 | 1017.7 |
| 20260901053704 | 12 | 238 | 0.0 | 1.6 | 0.00 | 0.00 | 0.00 | 76 | 1017.6 |
| 20260901053225 | 12 | 238 | 0.0 | 1.6 | 0.00 | 0.00 | 0.00 | 76 | 1017.6 |
| 20260901051704 | 12 | 238 | 0.0 | 1.6 | 0.00 | 0.00 | 0.00 | 77 | 1017.6 |
| 20260901051204 | 12 | 238 | 0.0 | 1.6 | 0.00 | 0.00 | 0.00 | 77 | 1017.5 |
| 20260901050704 | 12 | 238 | 0.0 | 1.6 | 0.00 | 0.00 | 0.00 | 77 | 1017.4 |
| 20260901050204 | 12 | 238 | 0.0 | 1.6 | 0.00 | 0.00 | 0.00 | 77 | 1017.4 |
| 20260901044705 | 12 | 238 | 0.0 | 1.6 | 0.00 | 0.00 | 0.00 | 78 | 1017.3 |
| 20260901044205 | 12 | 238 | 0.0 | 1.6 | 0.00 | 0.00 | 0.00 | 78 | 1017.3 |
| 20260901043705 | 12 | 238 | 0.0 | 1.6 | 0.00 | 0.00 | 0.00 | 78 | 1017.4 |
| 20260901043204 | 12 | 238 | 0.0 | 1.6 | 0.00 | 0.00 | 0.00 | 78 | 1017.4 |
| 20260901042704 | 12 | 238 | 0.0 | 0.0 | 0.00 | 0.00 | 0.00 | 78 | 1017.4 |
| 20260901042204 | 12 | 238 | 0.0 | 0.0 | 0.00 | 0.00 | 0.00 | 78 | 1017.4 |
| 20260901041705 | 12 | 238 | 0.0 | 1.6 | 0.00 | 0.00 | 0.00 | 78 | 1017.2 |
| 20260901041205 | 12 | 238 | 0.0 | 1.6 | 0.00 | 0.00 | 0.00 | 78 | 1017.1 |
| 20260901040705 | 13 | 238 | 0.0 | 1.6 | 0.00 | 0.00 | 0.00 | 78 | 1017.1 |
| 20260901040203 | 13 | 238 | 0.0 | 1.6 | 0.00 | 0.00 | 0.00 | 78 | 1017.1 |
| 20260901035206 | 13 | 238 | 0.0 | 1.6 | 0.00 | 0.00 | 0.00 | 78 | 1017.1 |
| 20260901034705 | 13 | 238 | 0.0 | 1.6 | 0.00 | 0.00 | 0.00 | 79 | 1017.0 |
| 20260901033705 | 13 | 238 | 0.0 | 3.2 | 0.00 | 0.00 | 0.00 | 78 | 1017.1 |
| 20260901033204 | 13 | 238 | 0.0 | 3.2 | 0.00 | 0.00 | 0.00 | 78 | 1017.0 |
| 20260901032704 | 13 | 238 | 0.0 | 3.2 | 0.00 | 0.00 | 0.00 | 78 | 1017.0 |
| 20260901032203 | 13 | 238 | 0.0 | 1.6 | 0.00 | 0.00 | 0.00 | 78 | 1017.0 |
| 20260901031705 | 13 | 238 | 0.0 | 1.6 | 0.00 | 0.00 | 0.00 | 78 | 1017.0 |
| 20260901031204 | 13 | 238 | 0.0 | 1.6 | 0.00 | 0.00 | 0.00 | 78 | 1017.0 |
| 20260901030704 | 13 | 238 | 0.0 | 1.6 | 0.00 | 0.00 | 0.00 | 78 | 1017.0 |
| 20260901030204 | 13 | 238 | 0.0 | 1.6 | 0.00 | 0.00 | 0.00 | 78 | 1017.0 |
| 20260901025205 | 13 | 238 | 0.0 | 1.6 | 0.00 | 0.00 | 0.00 | 78 | 1017.0 |
| 20260901024705 | 13 | 238 | 0.0 | 0.0 | 0.00 | 0.00 | 0.00 | 78 | 1016.9 |
| 20260901024203 | 14 | 238 | 0.0 | 0.0 | 0.00 | 0.00 | 0.00 | 77 | 1017.0 |
| 20260901023705 | 14 | 238 | 0.0 | 1.6 | 0.00 | 0.00 | 0.00 | 77 | 1017.0 |
| 20260901023204 | 14 | 238 | 0.0 | 1.6 | 0.00 | 0.00 | 0.00 | 77 | 1016.9 |
| 20260901022708 | 14 | 238 | 0.0 | 1.6 | 0.00 | 0.00 | 0.00 | 77 | 1016.9 |
| 20260901022204 | 14 | 238 | 0.0 | 1.6 | 0.00 | 0.00 | 0.00 | 76 | 1016.9 |
| 20260901021704 | 14 | 238 | 0.0 | 1.6 | 0.00 | 0.00 | 0.00 | 76 | 1017.0 |
| 20260901021204 | 14 | 238 | 0.0 | 1.6 | 0.00 | 0.00 | 0.00 | 76 | 1017.0 |
| 20260901020704 | 15 | 238 | 0.0 | 1.6 | 0.00 | 0.00 | 0.00 | 76 | 1016.9 |
| 20260901015704 | 15 | 238 | 0.0 | 1.6 | 0.00 | 0.00 | 0.00 | 75 | 1016.9 |
| 20260901015204 | 15 | 238 | 0.0 | 1.6 | 0.00 | 0.00 | 0.00 | 75 | 1016.8 |
| 20260901014704 | 15 | 238 | 0.0 | 3.2 | 0.00 | 0.00 | 0.00 | 74 | 1016.9 |
| 20260901013706 | 15 | 238 | 0.0 | 6.4 | 0.00 | 0.00 | 0.00 | 74 | 1016.7 |
| 20260901013205 | 15 | 238 | 1.6 | 6.4 | 0.00 | 0.00 | 0.00 | 74 | 1016.8 |
| 20260901012704 | 15 | 238 | 1.6 | 6.4 | 0.00 | 0.00 | 0.00 | 74 | 1016.7 |
| 20260901011204 | 15 | 238 | 1.6 | 3.2 | 0.00 | 0.00 | 0.00 | 72 | 1016.8 |
| 20260901010704 | 16 | 238 | 0.0 | 8.0 | 0.00 | 0.00 | 0.00 | 72 | 1016.6 |
| 20260901010204 | 16 | 238 | 0.0 | 8.0 | 0.00 | 0.00 | 0.00 | 71 | 1016.6 |
| 20260901005704 | 16 | 238 | 1.6 | 8.0 | 0.00 | 0.00 | 0.00 | 71 | 1016.7 |
| 20260901005204 | 16 | 240 | 3.2 | 14.5 | 0.00 | 0.00 | 0.00 | 71 | 1016.6 |
| 20260901003704 | 16 | 241 | 3.2 | 14.5 | 0.00 | 0.00 | 0.00 | 70 | 1016.6 |
| 20260901002706 | 16 | 274 | 3.2 | 11.3 | 0.00 | 0.00 | 0.00 | 70 | 1016.6 |
| 20260901002204 | 16 | 243 | 4.8 | 8.0 | 0.00 | 0.00 | 0.00 | 70 | 1016.6 |
| 20260901001709 | 16 | 231 | 3.2 | 8.0 | 0.00 | 0.00 | 0.00 | 70 | 1016.5 |
| 20260901000704 | 16 | 241 | 3.2 | 8.0 | 0.00 | 0.00 | 0.00 | 69 | 1016.5 |
| 20260901000204 | 17 | 248 | 3.2 | 8.0 | 0.00 | 0.00 | 0.00 | 70 | 1016.4 |
| 20260831235704 | 17 | 238 | 1.6 | 8.0 | 0.00 | 0.00 | 0.00 | 69 | 1016.4 |
| 20260831235205 | 17 | 238 | 1.6 | 8.0 | 0.00 | 0.00 | 0.00 | 69 | 1016.4 |
| 20260831234704 | 17 | 237 | 3.2 | 8.0 | 0.00 | 0.00 | 0.00 | 69 | 1016.4 |
| 20260831234204 | 17 | 241 | 3.2 | 8.0 | 0.00 | 0.00 | 0.00 | 69 | 1016.3 |
| 20260831233704 | 17 | 241 | 1.6 | 8.0 | 0.00 | 0.00 | 0.00 | 69 | 1016.3 |
| 20260831233204 | 17 | 241 | 3.2 | 11.3 | 0.00 | 0.00 | 0.00 | 69 | 1016.2 |
| 20260831232205 | 17 | 241 | 3.2 | 6.4 | 0.00 | 0.00 | 0.00 | 69 | 1016.2 |
| 20260831231706 | 17 | 244 | 1.6 | 6.4 | 0.00 | 0.00 | 0.00 | 69 | 1016.2 |
| 20260831231203 | 17 | 245 | 3.2 | 6.4 | 0.00 | 0.00 | 0.00 | 68 | 1016.2 |
| 20260831230705 | 17 | 245 | 3.2 | 6.4 | 0.00 | 0.00 | 0.00 | 68 | 1016.1 |
| 20260831230204 | 17 | 248 | 1.6 | 9.7 | 0.00 | 0.00 | 0.00 | 68 | 1016.1 |
| 20260831225704 | 17 | 250 | 0.0 | 9.7 | 0.00 | 0.00 | 0.00 | 67 | 1016.0 |
| 20260831225204 | 17 | 250 | 0.0 | 9.7 | 0.00 | 0.00 | 0.00 | 67 | 1016.1 |
| 20260831224704 | 17 | 250 | 0.0 | 9.7 | 0.00 | 0.00 | 0.00 | 67 | 1016.2 |
| 20260831224204 | 17 | 250 | 4.8 | 9.7 | 0.00 | 0.00 | 0.00 | 66 | 1016.2 |
| 20260831223704 | 17 | 254 | 3.2 | 9.7 | 0.00 | 0.00 | 0.00 | 66 | 1016.1 |
| 20260831223205 | 17 | 255 | 1.6 | 11.3 | 0.00 | 0.00 | 0.00 | 66 | 1016.1 |
| 20260831222706 | 17 | 250 | 3.2 | 11.3 | 0.00 | 0.00 | 0.00 | 66 | 1016.0 |
| 20260831221704 | 17 | 237 | 3.2 | 11.3 | 0.00 | 0.00 | 0.00 | 66 | 1016.0 |
| 20260831221204 | 17 | 255 | 4.8 | 8.0 | 0.00 | 0.00 | 0.00 | 67 | 1016.0 |
| 20260831220724 | 17 | 234 | 4.8 | 8.0 | 0.00 | 0.00 | 0.00 | 67 | 1016.0 |
| 20260831220204 | 18 | 248 | 3.2 | 8.0 | 0.00 | 0.00 | 0.00 | 66 | 1015.9 |
| 20260831215705 | 18 | 223 | 3.2 | 8.0 | 0.00 | 0.00 | 0.00 | 66 | 1015.9 |
| 20260831215204 | 18 | 219 | 3.2 | 11.3 | 0.00 | 0.00 | 0.00 | 66 | 1015.9 |
| 20260831214704 | 18 | 203 | 3.2 | 11.3 | 0.00 | 0.00 | 0.00 | 65 | 1015.9 |
| 20260831214204 | 18 | 234 | 3.2 | 17.7 | 0.00 | 0.00 | 0.00 | 65 | 1015.8 |
| 20260831213704 | 18 | 240 | 4.8 | 17.7 | 0.00 | 0.00 | 0.00 | 65 | 1015.7 |
| 20260831212205 | 18 | 250 | 8.0 | 11.3 | 0.00 | 0.00 | 0.00 | 65 | 1015.7 |
| 20260831211205 | 18 | 241 | 3.2 | 6.4 | 0.00 | 0.00 | 0.00 | 67 | 1015.6 |
| 20260831210704 | 18 | 240 | 3.2 | 6.4 | 0.00 | 0.00 | 0.00 | 67 | 1015.6 |
| 20260831210205 | 18 | 241 | 1.6 | 8.0 | 0.00 | 0.05 | 0.00 | 67 | 1015.5 |
| 20260831205704 | 18 | 240 | 1.6 | 8.0 | 0.00 | 0.10 | 0.00 | 67 | 1015.3 |
| 20260831205204 | 18 | 240 | 1.6 | 11.3 | 0.00 | 0.10 | 0.00 | 66 | 1015.3 |
| 20260831204705 | 18 | 240 | 1.6 | 11.3 | 0.00 | 0.10 | 0.00 | 66 | 1015.2 |
| 20260831204204 | 18 | 237 | 3.2 | 14.5 | 0.00 | 0.10 | 0.00 | 65 | 1015.1 |
| 20260831203704 | 18 | 259 | 3.2 | 14.5 | 0.00 | 0.10 | 0.00 | 65 | 1015.0 |
| 20260831202706 | 19 | 233 | 4.8 | 9.7 | 0.00 | 0.10 | 0.00 | 65 | 1014.9 |
| 20260831202204 | 19 | 250 | 4.8 | 9.7 | 0.00 | 0.10 | 0.00 | 65 | 1014.8 |
| 20260831201704 | 19 | 233 | 3.2 | 9.7 | 0.00 | 0.10 | 0.00 | 65 | 1014.7 |
| 20260831201204 | 19 | 228 | 4.8 | 9.7 | 0.00 | 0.10 | 0.00 | 64 | 1014.7 |
| 20260831200706 | 19 | 241 | 3.2 | 9.7 | 0.00 | 0.10 | 0.00 | 64 | 1014.7 |
| 20260831200204 | 19 | 235 | 4.8 | 14.5 | 0.00 | 0.10 | 0.00 | 64 | 1014.5 |
| 20260831195703 | 19 | 213 | 3.2 | 14.5 | 0.00 | 0.10 | 0.00 | 64 | 1014.5 |
| 20260831195204 | 20 | 235 | 6.4 | 14.5 | 0.00 | 0.10 | 0.00 | 64 | 1014.5 |
| 20260831194704 | 20 | 237 | 3.2 | 14.5 | 0.00 | 0.10 | 0.00 | 64 | 1014.4 |
| 20260831194205 | 20 | 237 | 4.8 | 17.7 | 0.00 | 0.10 | 0.00 | 63 | 1014.2 |
| 20260831193709 | 20 | 251 | 6.4 | 17.7 | 0.00 | 0.10 | 0.00 | 63 | 1014.3 |
| 20260831192704 | 20 | 228 | 6.4 | 19.3 | 0.00 | 0.10 | 0.00 | 63 | 1014.2 |
| 20260831191704 | 20 | 259 | 6.4 | 16.1 | 0.00 | 0.10 | 0.00 | 63 | 1013.9 |
| 20260831191204 | 20 | 238 | 8.0 | 17.7 | 0.00 | 0.10 | 0.00 | 63 | 1013.9 |
| 20260831190704 | 20 | 285 | 4.8 | 17.7 | 0.00 | 0.10 | 0.00 | 63 | 1013.9 |
| 20260831185703 | 20 | 244 | 6.4 | 19.3 | 0.00 | 0.10 | 0.00 | 63 | 1013.7 |
| 20260831185205 | 20 | 243 | 3.2 | 19.3 | 0.00 | 0.10 | 0.00 | 63 | 1013.7 |
| 20260831184704 | 20 | 233 | 8.0 | 19.3 | 0.00 | 0.10 | 0.00 | 63 | 1013.7 |
| 20260831184204 | 21 | 228 | 8.0 | 20.9 | 0.00 | 0.10 | 0.00 | 63 | 1013.6 |
| 20260831183704 | 21 | 235 | 6.4 | 20.9 | 0.00 | 0.10 | 0.00 | 62 | 1013.5 |
| 20260831183204 | 21 | 231 | 8.0 | 20.9 | 0.00 | 0.10 | 0.00 | 62 | 1013.5 |
| 20260831182704 | 21 | 230 | 4.8 | 20.9 | 0.00 | 0.10 | 0.00 | 63 | 1013.4 |
| 20260831182204 | 21 | 216 | 6.4 | 8.0 | 0.00 | 0.10 | 0.00 | 65 | 1013.2 |
| 20260831181704 | 21 | 238 | 3.2 | 8.0 | 0.00 | 0.10 | 0.00 | 65 | 1013.1 |
| 20260831181205 | 21 | 238 | 3.2 | 8.0 | 0.00 | 0.10 | 0.00 | 64 | 1013.1 |
| 20260831180705 | 21 | 240 | 3.2 | 8.0 | 0.00 | 0.10 | 0.00 | 64 | 1013.0 |
| 20260831180204 | 21 | 238 | 1.6 | 9.7 | 0.00 | 0.10 | 0.00 | 64 | 1012.9 |
| 20260831174704 | 21 | 241 | 3.2 | 8.0 | 0.00 | 0.10 | 0.00 | 64 | 1012.7 |
| 20260831174203 | 21 | 237 | 1.6 | 8.0 | 0.00 | 0.10 | 0.00 | 64 | 1012.7 |
| 20260831173714 | 21 | 237 | 3.2 | 8.0 | 0.00 | 0.10 | 0.00 | 64 | 1012.7 |
| 20260831173204 | 21 | 237 | 3.2 | 6.4 | 0.00 | 0.10 | 0.00 | 64 | 1012.6 |
| 20260831172704 | 21 | 237 | 3.2 | 6.4 | 0.00 | 0.10 | 0.00 | 64 | 1012.6 |
| 20260831172204 | 21 | 237 | 3.2 | 6.4 | 0.00 | 0.10 | 0.00 | 64 | 1012.6 |
| 20260831171704 | 21 | 237 | 3.2 | 9.7 | 0.00 | 0.10 | 0.00 | 64 | 1012.5 |
| 20260831171228 | 21 | 237 | 1.6 | 9.7 | 0.00 | 0.10 | 0.00 | 65 | 1012.4 |
| 20260831170704 | 21 | 237 | 0.0 | 9.7 | 0.00 | 0.10 | 0.00 | 65 | 1012.4 |
| 20260831170204 | 21 | 247 | 3.2 | 8.0 | 0.00 | 0.10 | 0.00 | 65 | 1012.3 |
| 20260831165203 | 21 | 255 | 3.2 | 9.7 | 0.00 | 0.10 | 0.00 | 65 | 1012.2 |
| 20260831164704 | 21 | 255 | 3.2 | 9.7 | 0.00 | 0.10 | 0.00 | 65 | 1012.2 |
| 20260831163705 | 21 | 268 | 3.2 | 9.7 | 0.00 | 0.10 | 0.00 | 64 | 1012.1 |
| 20260831162705 | 21 | 217 | 3.2 | 11.3 | 0.00 | 0.10 | 0.00 | 66 | 1012.0 |
| 20260831162204 | 21 | 283 | 3.2 | 11.3 | 0.00 | 0.10 | 0.00 | 67 | 1012.1 |
| 20260831161705 | 21 | 254 | 1.6 | 11.3 | 0.00 | 0.10 | 0.00 | 66 | 1012.0 |
| 20260831160705 | 21 | 247 | 4.8 | 11.3 | 0.00 | 0.10 | 0.00 | 65 | 1012.0 |
| 20260831160207 | 21 | 286 | 6.4 | 14.5 | 0.00 | 0.10 | 0.00 | 65 | 1012.0 |
| 20260831155705 | 21 | 255 | 3.2 | 14.5 | 0.00 | 0.10 | 0.00 | 65 | 1011.9 |
| 20260831155204 | 21 | 228 | 1.6 | 9.7 | 0.00 | 0.10 | 0.00 | 66 | 1011.7 |
| 20260831154704 | 21 | 240 | 3.2 | 9.7 | 0.00 | 0.10 | 0.00 | 67 | 1011.7 |
| 20260831154204 | 21 | 233 | 3.2 | 9.7 | 0.00 | 0.10 | 0.00 | 67 | 1011.6 |
| 20260831153205 | 21 | 228 | 3.2 | 14.5 | 0.00 | 0.10 | 0.00 | 67 | 1011.6 |
| 20260831152707 | 21 | 240 | 3.2 | 14.5 | 0.00 | 0.10 | 0.00 | 67 | 1011.6 |
| 20260831152203 | 21 | 285 | 1.6 | 14.5 | 0.00 | 0.10 | 0.00 | 67 | 1011.5 |
| 20260831151704 | 21 | 259 | 1.6 | 14.5 | 0.00 | 0.10 | 0.00 | 65 | 1011.4 |
| 20260831151204 | 21 | 265 | 3.2 | 24.1 | 0.00 | 0.10 | 0.00 | 64 | 1011.3 |
| 20260831144704 | 23 | 214 | 9.7 | 25.7 | 0.00 | 0.10 | 0.00 | 54 | 1011.1 |
| 20260831144205 | 22 | 234 | 6.4 | 24.1 | 0.00 | 0.10 | 0.00 | 55 | 1011.0 |
| 20260831142704 | 22 | 245 | 8.0 | 20.9 | 0.00 | 0.10 | 0.00 | 57 | 1010.9 |
| 20260831142207 | 22 | 286 | 8.0 | 19.3 | 0.00 | 0.10 | 0.00 | 56 | 1010.8 |
| 20260831141704 | 22 | 251 | 6.4 | 19.3 | 0.00 | 0.10 | 0.00 | 58 | 1010.8 |
| 20260831141205 | 22 | 224 | 8.0 | 19.3 | 0.00 | 0.10 | 0.00 | 56 | 1010.7 |
| 20260831140704 | 23 | 188 | 4.8 | 19.3 | 0.00 | 0.10 | 0.00 | 56 | 1010.7 |
| 20260831140204 | 22 | 290 | 4.8 | 22.5 | 0.00 | 0.10 | 0.00 | 56 | 1010.5 |
| 20260831135709 | 22 | 228 | 4.8 | 22.5 | 0.00 | 0.10 | 0.00 | 58 | 1010.6 |
| 20260831135203 | 22 | 207 | 12.9 | 19.3 | 0.00 | 0.10 | 0.00 | 56 | 1010.7 |
| 20260831134704 | 22 | 257 | 9.7 | 19.3 | 0.00 | 0.10 | 0.00 | 58 | 1010.6 |
| 20260831134205 | 22 | 251 | 8.0 | 17.7 | 0.00 | 0.10 | 0.00 | 60 | 1010.6 |
| 20260831132704 | 21 | 244 | 8.0 | 20.9 | 0.00 | 0.10 | 0.00 | 62 | 1010.4 |
| 20260831132208 | 21 | 190 | 6.4 | 20.9 | 0.00 | 0.10 | 0.00 | 63 | 1010.3 |
| 20260831131705 | 21 | 250 | 4.8 | 20.9 | 0.00 | 0.10 | 0.00 | 62 | 1010.1 |
| 20260831131207 | 21 | 275 | 9.7 | 19.3 | 0.00 | 0.10 | 0.00 | 62 | 1010.2 |
| 20260831130707 | 21 | 279 | 8.0 | 19.3 | 0.00 | 0.10 | 0.00 | 62 | 1010.1 |
| 20260831125704 | 21 | 251 | 9.7 | 22.5 | 0.00 | 0.10 | 0.00 | 60 | 1009.9 |
| 20260831125208 | 21 | 252 | 4.8 | 22.5 | 0.00 | 0.10 | 0.00 | 60 | 1009.8 |
| 20260831124705 | 21 | 257 | 4.8 | 22.5 | 0.00 | 0.10 | 0.00 | 60 | 1009.8 |
| 20260831124208 | 21 | 247 | 8.0 | 14.5 | 0.00 | 0.10 | 0.00 | 61 | 1009.8 |
| 20260831123804 | 21 | 251 | 6.4 | 14.5 | 0.00 | 0.10 | 0.00 | 60 | 1009.7 |
| 20260831123204 | 21 | 303 | 4.8 | 19.3 | 0.00 | 0.10 | 0.00 | 60 | 1009.5 |
| 20260831122204 | 21 | 197 | 6.4 | 25.7 | 0.00 | 0.10 | 0.00 | 61 | 1009.5 |
| 20260831121733 | 21 | 233 | 6.4 | 25.7 | 0.00 | 0.10 | 0.00 | 60 | 1009.5 |
| 20260831121203 | 21 | 247 | 4.8 | 25.7 | 0.00 | 0.10 | 0.00 | 60 | 1009.2 |
| 20260831120704 | 21 | 252 | 9.7 | 25.7 | 0.00 | 0.10 | 0.00 | 59 | 1009.3 |
| 20260831120204 | 21 | 212 | 8.0 | 22.5 | 0.00 | 0.10 | 0.00 | 60 | 1009.2 |
| 20260831115706 | 21 | 234 | 6.4 | 22.5 | 0.00 | 0.10 | 0.00 | 63 | 1009.2 |
| 20260831115205 | 20 | 200 | 4.8 | 20.9 | 0.00 | 0.10 | 0.00 | 63 | 1009.2 |
| 20260831114704 | 21 | 204 | 11.3 | 20.9 | 0.00 | 0.10 | 0.00 | 61 | 1009.1 |
| 20260831114204 | 21 | 268 | 6.4 | 19.3 | 0.00 | 0.10 | 0.00 | 62 | 1009.1 |
| 20260831113732 | 20 | 231 | 3.2 | 19.3 | 0.00 | 0.10 | 0.00 | 64 | 1008.9 |
| 20260831113204 | 20 | 247 | 6.4 | 20.9 | 0.00 | 0.10 | 0.00 | 62 | 1009.0 |
| 20260831112203 | 21 | 261 | 9.7 | 17.7 | 0.00 | 0.10 | 0.00 | 63 | 1008.8 |
| 20260831111714 | 20 | 240 | 9.7 | 14.5 | 0.00 | 0.10 | 0.00 | 64 | 1008.7 |
| 20260831110703 | 20 | 248 | 3.2 | 16.1 | 0.00 | 0.10 | 0.00 | 64 | 1008.7 |
| 20260831105204 | 20 | 255 | 6.4 | 17.7 | 0.00 | 0.10 | 0.00 | 66 | 1008.5 |
| 20260831104704 | 20 | 243 | 6.4 | 17.7 | 0.00 | 0.10 | 0.00 | 68 | 1008.4 |
| 20260831103703 | 20 | 252 | 6.4 | 17.7 | 0.00 | 0.10 | 0.00 | 67 | 1008.2 |
| 20260831103204 | 20 | 186 | 6.4 | 17.7 | 0.00 | 0.10 | 0.00 | 68 | 1008.3 |
| 20260831102704 | 20 | 245 | 4.8 | 17.7 | 0.00 | 0.10 | 0.00 | 70 | 1008.2 |
| 20260831102203 | 19 | 185 | 3.2 | 17.7 | 0.00 | 0.10 | 0.00 | 71 | 1008.1 |
| 20260831101704 | 19 | 209 | 3.2 | 17.7 | 0.00 | 0.10 | 0.00 | 71 | 1008.1 |
| 20260831101204 | 19 | 247 | 4.8 | 19.3 | 0.00 | 0.10 | 0.00 | 71 | 1008.0 |
| 20260831100704 | 19 | 193 | 4.8 | 19.3 | 0.00 | 0.10 | 0.00 | 73 | 1008.0 |
| 20260831100204 | 18 | 238 | 4.8 | 16.1 | 0.00 | 0.10 | 0.00 | 74 | 1008.0 |
| 20260831095704 | 18 | 228 | 6.4 | 16.1 | 0.00 | 0.10 | 0.00 | 74 | 1007.9 |
| 20260831095204 | 18 | 241 | 6.4 | 20.9 | 0.00 | 0.10 | 0.00 | 73 | 1007.9 |
| 20260831094204 | 18 | 240 | 3.2 | 20.9 | 0.00 | 0.10 | 0.00 | 74 | 1007.7 |
| 20260831093707 | 18 | 231 | 4.8 | 20.9 | 0.00 | 0.10 | 0.00 | 74 | 1007.8 |
| 20260831093204 | 18 | 245 | 6.4 | 22.5 | 0.00 | 0.10 | 0.00 | 75 | 1007.6 |